createdAt,value
2019-05-01T00:02:44.479Z,10.99
2019-05-01T00:05:17.361Z,10.99
2019-05-01T00:07:48.704Z,11.05
2019-05-01T00:10:21.465Z,11.03
2019-05-01T00:12:51.913Z,10.96
2019-05-01T00:15:25.613Z,11.02
2019-05-01T00:17:57.065Z,11.00
2019-05-01T00:20:27.900Z,10.82
2019-05-01T00:22:58.740Z,10.72
2019-05-01T00:25:30.324Z,10.71
2019-05-01T00:28:02.656Z,10.74
2019-05-01T00:30:34.411Z,10.77
2019-05-01T00:33:05.350Z,10.78
2019-05-01T00:35:35.979Z,10.70
2019-05-01T00:38:06.916Z,10.64
2019-05-01T00:40:38.675Z,10.74
2019-05-01T00:43:09.614Z,10.73
2019-05-01T00:45:41.869Z,10.76
2019-05-01T00:48:12.671Z,10.76
2019-05-01T00:50:44.866Z,10.76
2019-05-01T00:53:15.514Z,10.75
2019-05-01T00:56:06.483Z,10.70
2019-05-01T00:58:51.182Z,10.70
2019-05-01T01:01:39.929Z,10.68
2019-05-01T01:04:12.652Z,10.69
2019-05-01T01:06:43.554Z,10.74
2019-05-01T01:09:14.494Z,10.75
2019-05-01T01:11:45.425Z,10.72
2019-05-01T01:14:16.460Z,10.69
2019-05-01T01:16:49.186Z,10.73
2019-05-01T01:19:20.183Z,10.69
2019-05-01T01:21:51.821Z,10.60
2019-05-01T01:24:22.363Z,10.61
2019-05-01T01:26:53.302Z,10.55
2019-05-01T01:29:24.426Z,10.63
2019-05-01T01:31:55.483Z,10.67
2019-05-01T01:34:26.432Z,10.69
2019-05-01T01:36:57.148Z,10.62
2019-05-01T01:39:28.598Z,10.54
2019-05-01T01:42:00.154Z,10.50
2019-05-01T01:44:35.796Z,10.50
2019-05-01T01:47:06.738Z,10.54
2019-05-01T01:49:38.073Z,10.64
2019-05-01T01:52:08.813Z,10.58
2019-05-01T01:54:39.653Z,10.59
2019-05-01T01:57:10.839Z,10.55
2019-05-01T01:59:42.147Z,10.57
2019-05-01T02:02:21.982Z,10.53
2019-05-01T02:05:06.338Z,10.47
2019-05-01T02:07:38.543Z,10.40
2019-05-01T02:10:09.539Z,10.49
2019-05-01T02:12:41.161Z,10.48
2019-05-01T02:15:12.270Z,10.47
2019-05-01T02:17:44.508Z,10.39
2019-05-01T02:20:16.164Z,10.42
2019-05-01T02:22:47.101Z,10.40
2019-05-01T02:25:18.138Z,10.48
2019-05-01T02:27:53.682Z,10.51
2019-05-01T02:30:26.566Z,10.55
2019-05-01T02:32:59.323Z,10.43
2019-05-01T02:35:31.335Z,10.46
2019-05-01T02:38:04.499Z,10.44
2019-05-01T02:40:51.615Z,10.49
2019-05-01T02:43:24.114Z,10.47
2019-05-01T02:45:58.118Z,10.53
2019-05-01T02:48:31.647Z,10.53
2019-05-01T02:51:02.835Z,10.49
2019-05-01T02:53:35.925Z,10.53
2019-05-01T02:56:22.768Z,10.53
2019-05-01T02:58:56.982Z,10.58
2019-05-01T03:01:45.063Z,10.65
2019-05-01T03:04:01.286Z,10.66
2019-05-01T03:06:33.857Z,10.70
2019-05-01T03:09:07.867Z,10.80
2019-05-01T03:11:39.484Z,10.81
2019-05-01T03:14:12.838Z,10.87
2019-05-01T03:16:43.957Z,10.79
2019-05-01T03:19:16.019Z,10.82
2019-05-01T03:21:51.189Z,10.73
2019-05-01T03:24:24.492Z,10.78
2019-05-01T03:26:55.694Z,10.78
2019-05-01T03:29:26.859Z,10.77
2019-05-01T03:32:15.940Z,10.77
2019-05-01T03:34:30.869Z,10.74
2019-05-01T03:37:01.470Z,10.85
2019-05-01T03:39:32.425Z,10.96
2019-05-01T03:42:04.532Z,11.02
2019-05-01T03:44:35.123Z,10.95
2019-05-01T03:47:07.407Z,10.88
2019-05-01T03:49:39.043Z,10.85
2019-05-01T03:52:09.776Z,10.92
2019-05-01T03:54:42.455Z,10.93
2019-05-01T03:57:13.883Z,10.94
2019-05-01T03:59:45.027Z,10.99
2019-05-01T04:02:33.202Z,11.08
2019-05-01T04:04:56.399Z,11.11
2019-05-01T04:07:28.041Z,11.22
2019-05-01T04:09:58.834Z,11.31
2019-05-01T04:12:30.200Z,11.30
2019-05-01T04:15:01.523Z,11.32
2019-05-01T04:17:36.659Z,11.34
2019-05-01T04:20:08.111Z,11.31
2019-05-01T04:22:39.041Z,11.39
2019-05-01T04:25:10.952Z,11.41
2019-05-01T04:27:43.175Z,11.54
2019-05-01T04:30:25.579Z,11.54
2019-05-01T04:32:58.260Z,11.53
2019-05-01T04:35:30.770Z,11.53
2019-05-01T04:38:02.501Z,11.61
2019-05-01T04:40:34.961Z,11.74
2019-05-01T04:43:06.614Z,11.80
2019-05-01T04:45:37.963Z,11.85
2019-05-01T04:48:09.490Z,11.89
2019-05-01T04:50:41.166Z,12.01
2019-05-01T04:53:11.898Z,12.05
2019-05-01T04:55:45.071Z,12.14
2019-05-01T04:58:16.926Z,12.10
2019-05-01T05:00:47.906Z,12.18
2019-05-01T05:03:22.616Z,12.23
2019-05-01T05:05:53.648Z,12.29
2019-05-01T05:08:24.689Z,12.34
2019-05-01T05:11:00.590Z,12.40
2019-05-01T05:13:46.948Z,12.56
2019-05-01T05:16:19.823Z,12.65
2019-05-01T05:18:50.898Z,12.85
2019-05-01T05:21:24.218Z,12.91
2019-05-01T05:23:55.501Z,12.95
2019-05-01T05:26:26.335Z,13.11
2019-05-01T05:28:58.865Z,13.18
2019-05-01T05:31:29.972Z,13.32
2019-05-01T05:34:02.293Z,13.48
2019-05-01T05:36:35.516Z,13.40
2019-05-01T05:39:09.214Z,13.40
2019-05-01T05:41:40.517Z,13.52
2019-05-01T05:44:11.369Z,13.57
2019-05-01T05:46:42.026Z,13.66
2019-05-01T05:49:13.286Z,13.75
2019-05-01T05:51:47.174Z,13.85
2019-05-01T05:54:31.468Z,14.01
2019-05-01T05:57:08.099Z,14.21
2019-05-01T05:59:52.660Z,14.39
2019-05-01T06:02:29.882Z,14.50
2019-05-01T06:05:22.695Z,14.51
2019-05-01T06:07:57.733Z,14.43
2019-05-01T06:10:35.214Z,14.75
2019-05-01T06:13:18.008Z,14.91
2019-05-01T06:15:51.526Z,15.10
2019-05-01T06:18:27.381Z,15.35
2019-05-01T06:21:02.367Z,15.52
2019-05-01T06:23:45.436Z,15.65
2019-05-01T06:26:31.900Z,15.76
2019-05-01T06:29:02.359Z,16.07
2019-05-01T06:31:33.714Z,16.14
2019-05-01T06:34:04.956Z,16.29
2019-05-01T06:36:35.889Z,16.48
2019-05-01T06:39:11.712Z,16.72
2019-05-01T06:41:43.211Z,16.62
2019-05-01T06:44:17.183Z,16.60
2019-05-01T06:47:03.271Z,16.33
2019-05-01T06:49:45.599Z,16.20
2019-05-01T06:52:24.901Z,16.09
2019-05-01T06:54:54.167Z,15.98
2019-05-01T06:57:26.119Z,15.78
2019-05-01T07:00:03.155Z,16.04
2019-05-01T07:02:35.077Z,16.12
2019-05-01T07:05:24.954Z,16.08
2019-05-01T07:07:56.922Z,16.15
2019-05-01T07:10:39.110Z,16.15
2019-05-01T07:13:05.016Z,16.44
2019-05-01T07:15:38.824Z,16.51
2019-05-01T07:18:11.456Z,16.55
2019-05-01T07:20:51.332Z,16.25
2019-05-01T07:23:22.690Z,16.17
2019-05-01T07:25:53.400Z,15.99
2019-05-01T07:28:29.010Z,16.30
2019-05-01T07:30:59.475Z,16.47
2019-05-01T07:33:32.263Z,16.74
2019-05-01T07:36:07.087Z,16.99
2019-05-01T07:38:38.367Z,16.88
2019-05-01T07:41:09.115Z,17.19
2019-05-01T07:44:01.014Z,17.24
2019-05-01T07:46:54.381Z,17.19
2019-05-01T07:49:25.921Z,17.21
2019-05-01T07:51:56.236Z,17.34
2019-05-01T07:54:26.859Z,17.63
2019-05-01T07:56:58.635Z,17.89
2019-05-01T07:59:30.586Z,17.99
2019-05-01T08:02:02.668Z,18.18
2019-05-01T08:04:36.279Z,18.58
2019-05-01T08:07:06.252Z,19.19
2019-05-01T08:09:38.835Z,19.56
2019-05-01T08:12:09.358Z,19.50
2019-05-01T08:14:40.293Z,19.70
2019-05-01T08:17:18.107Z,19.80
2019-05-01T08:19:53.231Z,20.03
2019-05-01T08:22:25.939Z,19.90
2019-05-01T08:24:58.641Z,20.51
2019-05-01T08:27:43.246Z,20.51
2019-05-01T08:30:32.513Z,20.33
2019-05-01T08:33:09.830Z,20.43
2019-05-01T08:35:40.858Z,20.53
2019-05-01T08:38:11.673Z,19.98
2019-05-01T08:40:44.455Z,20.60
2019-05-01T08:43:18.158Z,21.03
2019-05-01T08:45:52.815Z,20.73
2019-05-01T08:48:24.947Z,19.96
2019-05-01T08:50:59.396Z,20.23
2019-05-01T08:53:29.793Z,20.07
2019-05-01T08:56:01.445Z,19.86
2019-05-01T08:58:32.384Z,19.94
2019-05-01T09:01:05.077Z,20.14
2019-05-01T09:03:37.847Z,20.10
2019-05-01T09:06:08.414Z,20.27
2019-05-01T09:08:39.492Z,20.23
2019-05-01T09:11:10.565Z,20.08
2019-05-01T09:13:43.437Z,20.21
2019-05-01T09:16:14.369Z,20.21
2019-05-01T09:18:46.021Z,20.30
2019-05-01T09:21:16.959Z,20.44
2019-05-01T09:23:51.477Z,20.92
2019-05-01T09:26:33.890Z,20.59
2019-05-01T09:29:23.990Z,20.39
2019-05-01T09:31:56.701Z,20.24
2019-05-01T09:34:27.220Z,19.64
2019-05-01T09:36:58.235Z,19.77
2019-05-01T09:39:30.602Z,19.69
2019-05-01T09:42:01.224Z,19.71
2019-05-01T09:44:34.049Z,19.66
2019-05-01T09:47:06.053Z,20.10
2019-05-01T09:49:36.710Z,20.31
2019-05-01T09:52:18.904Z,20.89
2019-05-01T09:54:58.640Z,20.77
2019-05-01T09:57:30.923Z,20.51
2019-05-01T10:00:02.865Z,20.59
2019-05-01T10:02:33.403Z,21.16
2019-05-01T10:05:07.892Z,21.73
2019-05-01T10:07:40.247Z,21.88
2019-05-01T10:10:12.150Z,22.02
2019-05-01T10:12:46.941Z,22.64
2019-05-01T10:15:15.766Z,22.55
2019-05-01T10:17:46.599Z,24.22
2019-05-01T10:20:17.750Z,25.38
2019-05-01T10:22:48.888Z,24.25
2019-05-01T10:25:19.827Z,24.02
2019-05-01T10:27:53.041Z,24.38
2019-05-01T10:30:43.922Z,24.25
2019-05-01T10:33:16.186Z,23.99
2019-05-01T10:36:03.918Z,23.04
2019-05-01T10:38:39.986Z,23.18
2019-05-01T10:41:10.444Z,23.41
2019-05-01T10:43:41.337Z,22.85
2019-05-01T10:46:11.866Z,22.47
2019-05-01T10:48:42.711Z,22.70
2019-05-01T10:51:13.476Z,23.03
2019-05-01T10:53:44.166Z,22.90
2019-05-01T10:56:14.899Z,22.79
2019-05-01T10:58:46.178Z,23.46
2019-05-01T11:01:18.314Z,23.80
2019-05-01T11:03:49.156Z,23.48
2019-05-01T11:06:20.426Z,23.71
2019-05-01T11:08:52.466Z,23.67
2019-05-01T11:11:23.183Z,23.78
2019-05-01T11:13:54.023Z,23.78
2019-05-01T11:16:27.008Z,22.68
